Time;durP1;ratioP1;P1;durP2;ratioP2;P2;SDS_P1;SDS_P2;PMS_P1;PMS_P2;Temp;Humidity;BMP_temperature;BMP_pressure;BME280_temperature;BME280_humidity;BME280_pressure;Samples;Min_cycle;Max_cycle;Signal;HPM_P1;HPM_P2
2021/04/04 00:02:24;;;;;;;61.85;43.25;;;;;;;2.08;76.64;99319.41;113958;1200;64403;-83
2021/04/04 00:04:52;;;;;;;51.37;37.03;;;;;;;2.06;76.68;99316.84;113823;1199;64551;-83
2021/04/04 00:07:18;;;;;;;50.07;37.00;;;;;;;2.06;76.72;99313.35;114000;1200;64423;-89
2021/04/04 00:09:45;;;;;;;52.85;37.35;;;;;;;2.05;76.71;99316.86;114183;1200;64502;-84
2021/04/04 00:12:11;;;;;;;48.33;37.60;;;;;;;2.09;77.04;99316.75;114020;1199;64529;-85
2021/04/04 00:14:38;;;;;;;56.35;38.60;;;;;;;2.09;76.83;99322.00;113974;1199;64812;-84
2021/04/04 00:17:05;;;;;;;55.90;40.53;;;;;;;2.08;76.97;99316.77;114024;1199;64386;-84
2021/04/04 00:19:33;;;;;;;57.37;42.23;;;;;;;2.05;77.06;99312.46;113955;1199;64375;-85
2021/04/04 00:22:00;;;;;;;67.80;42.40;;;;;;;2.04;76.99;99326.52;113949;1200;64359;-84
2021/04/04 00:24:27;;;;;;;70.13;44.23;;;;;;;2.02;77.16;99324.84;113944;1199;64430;-85
2021/04/04 00:26:53;;;;;;;58.50;40.45;;;;;;;1.98;77.34;99322.30;113960;1199;64343;-86
2021/04/04 00:29:20;;;;;;;59.23;39.27;;;;;;;1.96;77.35;99324.09;113916;1199;64384;-84
2021/04/04 00:31:47;;;;;;;57.63;36.37;;;;;;;1.98;77.40;99326.70;113938;1200;64382;-85
2021/04/04 00:34:15;;;;;;;47.60;31.57;;;;;;;1.99;77.56;99331.04;113949;1199;64417;-85
2021/04/04 00:36:41;;;;;;;51.73;33.60;;;;;;;2.01;77.67;99334.50;113939;1199;64615;-83
2021/04/04 00:39:10;;;;;;;47.70;32.30;;;;;;;2.01;77.73;99323.13;113904;1200;64589;-84
2021/04/04 00:41:38;;;;;;;44.35;33.45;;;;;;;1.98;77.68;99335.44;114037;1199;64506;-84
2021/04/04 00:44:05;;;;;;;46.45;32.50;;;;;;;1.96;77.81;99334.61;113937;1200;64493;-84
2021/04/04 00:46:32;;;;;;;43.07;30.43;;;;;;;1.92;77.80;99325.09;113895;1199;64439;-83
2021/04/04 00:48:59;;;;;;;39.03;29.53;;;;;;;1.91;77.45;99323.36;113830;1199;64423;-85
2021/04/04 00:51:26;;;;;;;43.40;29.60;;;;;;;1.93;77.67;99332.07;113970;1200;64400;-83
2021/04/04 00:53:53;;;;;;;41.70;28.30;;;;;;;1.89;77.84;99332.19;113903;1199;64487;-83
2021/04/04 00:56:22;;;;;;;45.70;30.80;;;;;;;1.88;77.71;99333.09;113791;1200;64343;-82
2021/04/04 00:58:49;;;;;;;50.87;30.60;;;;;;;1.88;77.79;99335.73;113897;1200;64269;-82
2021/04/04 01:01:16;;;;;;;42.87;27.37;;;;;;;1.86;77.90;99329.64;113877;1200;64538;-83
2021/04/04 01:03:43;;;;;;;40.00;27.50;;;;;;;1.82;78.04;99331.50;113885;1200;64385;-83
2021/04/04 01:06:11;;;;;;;45.10;28.65;;;;;;;1.81;77.90;99331.52;113904;1200;64385;-83
2021/04/04 01:08:40;;;;;;;45.37;27.60;;;;;;;1.80;77.53;99335.06;113931;1199;64712;-83
2021/04/04 01:11:09;;;;;;;43.77;27.90;;;;;;;1.81;77.66;99329.75;114004;1200;64502;-84
2021/04/04 01:13:59;;;;;;;40.30;28.03;;;;;;;1.87;77.62;99333.98;113912;1199;64417;-85
2021/04/04 01:16:39;;;;;;;55.27;31.87;;;;;;;1.87;77.50;99340.13;114012;1199;64376;-85
2021/04/04 01:19:11;;;;;;;;;;;;;;;1.88;77.61;99335.73;114099;1206;64368;-85
2021/04/04 01:21:53;;;;;;;45.15;29.60;;;;;;;1.83;77.51;99340.23;114126;1200;64346;-85
2021/04/04 01:24:46;;;;;;;45.50;28.53;;;;;;;1.82;77.56;99341.12;114045;1199;64361;-86
2021/04/04 01:27:37;;;;;;;43.27;27.77;;;;;;;1.81;77.71;99342.03;114000;1199;64523;-87
2021/04/04 01:30:07;;;;;;;44.10;26.30;;;;;;;1.80;77.41;99343.80;113993;1200;64454;-86
2021/04/04 01:32:35;;;;;;;;;;;;;;;1.81;77.40;99342.03;114201;1206;64342;-87
2021/04/04 01:35:07;;;;;;;42.03;25.73;;;;;;;1.80;77.76;99346.43;114015;1200;64257;-87
2021/04/04 01:37:36;;;;;;;36.67;26.23;;;;;;;1.79;77.69;99344.72;113991;1199;64384;-87
2021/04/04 01:40:06;;;;;;;38.23;26.40;;;;;;;1.79;77.85;99341.20;114082;1200;64426;-87
2021/04/04 01:42:37;;;;;;;40.83;27.40;;;;;;;1.77;77.66;99351.77;114084;1199;64413;-87
2021/04/04 01:45:07;;;;;;;43.87;25.80;;;;;;;1.75;77.71;99357.05;114072;1199;64375;-85
2021/04/04 01:47:35;;;;;;;43.58;26.08;;;;;;;1.71;77.60;99349.28;114024;1200;64384;-86
2021/04/04 01:50:05;;;;;;;34.53;23.80;;;;;;;1.70;77.71;99352.82;114085;1200;64430;-87
2021/04/04 01:52:33;;;;;;;36.53;24.27;;;;;;;1.70;77.87;99363.33;114110;1200;64528;-86
2021/04/04 01:55:00;;;;;;;38.23;25.30;;;;;;;1.68;77.88;99360.73;114132;1199;64522;-87
2021/04/04 01:57:29;;;;;;;46.77;27.70;;;;;;;1.66;77.50;99359.92;114121;1199;64385;-87
2021/04/04 01:59:56;;;;;;;41.85;27.15;;;;;;;1.65;77.62;99363.44;114121;1200;64416;-87
2021/04/04 02:02:24;;;;;;;36.95;24.95;;;;;;;1.62;78.05;99358.27;114079;1199;64384;-86
2021/04/04 02:04:51;;;;;;;42.65;25.45;;;;;;;1.58;78.13;99354.00;114058;1199;64397;-86
2021/04/04 02:07:18;;;;;;;39.33;24.80;;;;;;;1.56;77.91;99363.67;113838;1199;64445;-86
2021/04/04 02:09:47;;;;;;;37.40;24.07;;;;;;;1.56;78.03;99362.82;113754;1199;64413;-85
2021/04/04 02:12:16;;;;;;;38.27;25.67;;;;;;;1.56;77.75;99362.82;113912;1199;64420;-86
2021/04/04 02:14:45;;;;;;;42.80;25.23;;;;;;;1.57;78.14;99369.78;113872;1199;64382;-86
2021/04/04 02:17:13;;;;;;;38.80;26.23;;;;;;;1.54;78.13;99370.72;114000;1199;64489;-86
2021/04/04 02:19:40;;;;;;;37.10;25.43;;;;;;;1.51;78.05;99374.29;113809;1199;64410;-86
2021/04/04 02:22:07;;;;;;;35.25;25.15;;;;;;;1.49;78.11;99368.20;113827;1199;64349;-86
2021/04/04 02:24:34;;;;;;;33.87;24.70;;;;;;;1.49;78.06;99370.83;113857;1199;64384;-86
2021/04/04 02:27:01;;;;;;;34.70;24.40;;;;;;;1.47;78.01;99369.99;113877;1200;64365;-86
2021/04/04 02:29:27;;;;;;;38.10;24.20;;;;;;;1.46;78.20;99373.53;113861;1199;64643;-86
2021/04/04 02:31:59;;;;;;;33.87;25.53;;;;;;;1.45;78.18;99365.67;113942;1199;64878;-86
2021/04/04 02:34:34;;;;;;;43.70;27.70;;;;;;;1.42;78.26;99374.52;113870;1199;64385;-85
2021/04/04 02:37:11;;;;;;;35.87;25.10;;;;;;;1.39;78.38;99385.08;113837;1200;64356;-84
2021/04/04 02:39:45;;;;;;;30.77;23.03;;;;;;;1.37;78.09;99380.75;113933;1200;64445;-86
2021/04/04 02:42:16;;;;;;;33.13;22.30;;;;;;;1.34;78.15;99379.06;113790;1199;64417;-85
2021/04/04 02:44:44;;;;;;;38.27;23.83;;;;;;;1.32;78.41;99380.88;113775;1199;64493;-85
2021/04/04 02:47:13;;;;;;;39.43;26.33;;;;;;;1.30;78.31;99378.28;113866;1199;64464;-85
2021/04/04 02:49:45;;;;;;;34.35;24.20;;;;;;;1.29;78.28;99381.82;113861;1200;64483;-86
2021/04/04 02:52:16;;;;;;;35.80;25.95;;;;;;;1.29;78.50;99375.68;113851;1199;64461;-85
2021/04/04 02:54:45;;;;;;;34.80;21.43;;;;;;;1.27;78.65;99382.75;113807;1199;64378;-84
2021/04/04 02:57:11;;;;;;;28.57;20.37;;;;;;;1.27;78.15;99385.38;113885;1199;64481;-86
2021/04/04 02:59:46;;;;;;;29.75;19.95;;;;;;;1.28;78.27;99387.09;113832;1200;64346;-85
2021/04/04 03:02:15;;;;;;;27.97;19.80;;;;;;;1.28;78.19;99381.84;113812;1199;64416;-85
2021/04/04 03:04:44;;;;;;;23.05;17.08;;;;;;;1.28;78.30;99381.84;113841;1199;64378;-84
2021/04/04 03:07:14;;;;;;;28.20;21.30;;;;;;;1.25;78.37;99388.02;113842;1200;64458;-85
2021/04/04 03:09:45;;;;;;;36.40;22.13;;;;;;;1.24;78.02;99386.31;113990;1199;64521;-85
2021/04/04 03:12:14;;;;;;;29.30;20.15;;;;;;;1.21;77.94;99389.02;113979;1199;64432;-84
2021/04/04 03:14:43;;;;;;;26.40;19.83;;;;;;;1.21;78.15;99382.88;113966;1199;64416;-85
2021/04/04 03:17:11;;;;;;;26.70;18.17;;;;;;;1.19;78.04;99398.67;114043;1200;64349;-85
2021/04/04 03:19:40;;;;;;;25.93;19.20;;;;;;;1.19;77.97;99397.81;113907;1199;64560;-86
2021/04/04 03:22:09;;;;;;;23.67;17.93;;;;;;;1.18;77.83;99396.92;113916;1200;64394;-85
2021/04/04 03:24:38;;;;;;;22.70;16.27;;;;;;;1.20;77.93;99396.91;114034;1199;64352;-85
2021/04/04 03:27:06;;;;;;;23.97;17.20;;;;;;;1.20;77.69;99387.27;114057;1199;64481;-86
2021/04/04 03:29:34;;;;;;;22.93;16.03;;;;;;;1.22;77.73;99398.60;114032;1200;64474;-86
2021/04/04 03:32:01;;;;;;;24.90;16.57;;;;;;;1.23;77.76;99399.45;114021;1199;64449;-85
2021/04/04 03:34:29;;;;;;;20.63;15.30;;;;;;;1.22;78.02;99401.23;114036;1199;64351;-86
2021/04/04 03:36:57;;;;;;;22.90;14.40;;;;;;;1.22;77.65;99398.60;114077;1199;64413;-86
2021/04/04 03:39:25;;;;;;;24.65;14.85;;;;;;;1.24;77.72;99391.56;114000;1199;64449;-86
2021/04/04 03:41:55;;;;;;;20.37;14.60;;;;;;;1.25;77.58;99390.65;113946;1199;64409;-86
2021/04/04 03:44:24;;;;;;;22.73;15.93;;;;;;;1.27;77.59;99390.63;114017;1199;64394;-86
2021/04/04 03:46:51;;;;;;;33.27;16.77;;;;;;;1.27;77.40;99399.36;113912;1199;64413;-86
2021/04/04 03:49:20;;;;;;;30.93;18.57;;;;;;;1.25;77.41;99395.91;114014;1199;64378;-87
2021/04/04 03:51:49;;;;;;;38.90;21.07;;;;;;;1.26;77.38;99402.01;114057;1199;64311;-86
2021/04/04 03:54:17;;;;;;;25.73;16.07;;;;;;;1.27;77.27;99401.13;114097;1200;64375;-86
2021/04/04 03:56:48;;;;;;;25.00;15.83;;;;;;;1.27;77.27;99399.36;113990;1199;64465;-84
2021/04/04 03:59:20;;;;;;;25.07;16.73;;;;;;;1.26;77.04;99396.76;113888;1199;64403;-84
2021/04/04 04:01:49;;;;;;;29.50;16.20;;;;;;;1.27;77.29;99395.88;113921;1200;64371;-82
2021/04/04 04:04:16;;;;;;;23.60;16.40;;;;;;;1.25;77.06;99393.27;113964;1200;64414;-83
2021/04/04 04:06:46;;;;;;;23.50;14.50;;;;;;;1.23;77.02;99400.31;113940;1199;64387;-84
2021/04/04 04:09:14;;;;;;;28.37;15.43;;;;;;;1.21;77.13;99403.88;113832;1199;64445;-84
2021/04/04 04:11:45;;;;;;;20.10;13.30;;;;;;;1.20;77.24;99404.78;113939;1199;64442;-85
2021/04/04 04:14:21;;;;;;;20.03;13.17;;;;;;;1.20;76.96;99407.41;113844;1199;64385;-87
2021/04/04 04:16:51;;;;;;;22.90;14.57;;;;;;;1.18;77.39;99410.05;113857;1199;64358;-84
2021/04/04 04:19:18;;;;;;;23.60;14.80;;;;;;;1.17;77.01;99408.34;113817;1199;64385;-85
2021/04/04 04:21:45;;;;;;;20.75;13.55;;;;;;;1.17;77.36;99412.73;113822;1199;64382;-87
2021/04/04 04:24:16;;;;;;;24.10;14.70;;;;;;;1.19;76.92;99414.42;114055;1199;64490;-83
2021/04/04 04:26:48;;;;;;;22.10;14.30;;;;;;;1.18;76.94;99417.93;114177;1200;64470;-84
2021/04/04 04:29:18;;;;;;;29.53;17.50;;;;;;;1.17;76.91;99418.84;114071;1199;64407;-85
2021/04/04 04:31:47;;;;;;;22.80;16.13;;;;;;;1.18;76.93;99410.05;113958;1199;64509;-84
2021/04/04 04:34:14;;;;;;;30.40;17.60;;;;;;;1.16;76.47;99416.23;113882;1199;64394;-83
2021/04/04 04:36:42;;;;;;;25.70;16.50;;;;;;;1.16;76.61;99416.23;113936;1199;64414;-84
2021/04/04 04:39:10;;;;;;;21.70;14.20;;;;;;;1.17;76.86;99417.98;113926;1199;64928;-83
2021/04/04 04:41:46;;;;;;;20.93;14.17;;;;;;;1.17;76.67;99421.47;113881;1200;64369;-84
2021/04/04 04:44:18;;;;;;;23.33;15.80;;;;;;;1.18;76.56;99415.30;113817;1200;64478;-84
2021/04/04 04:46:46;;;;;;;21.17;15.47;;;;;;;1.24;76.67;99416.95;113962;1199;64400;-87
2021/04/04 04:49:12;;;;;;;24.40;15.77;;;;;;;1.26;76.66;99421.28;113882;1199;64442;-85
2021/04/04 04:51:40;;;;;;;26.53;17.37;;;;;;;1.31;76.57;99415.90;113778;1199;64664;-85
2021/04/04 04:54:08;;;;;;;37.03;20.77;;;;;;;1.30;76.27;99429.94;113831;1200;64439;-84
2021/04/04 04:56:39;;;;;;;30.70;17.33;;;;;;;1.31;76.41;99442.16;113694;1199;64393;-84
2021/04/04 04:59:07;;;;;;;26.10;16.30;;;;;;;1.31;76.32;99427.26;113886;1200;64483;-85
2021/04/04 05:01:40;;;;;;;23.90;17.43;;;;;;;1.38;76.43;99430.63;113870;1199;64554;-84
2021/04/04 05:04:08;;;;;;;21.37;17.67;;;;;;;1.44;76.29;99432.24;113883;1199;64739;-86
2021/04/04 05:06:35;;;;;;;25.17;18.40;;;;;;;1.57;76.08;99432.83;114155;1199;64381;-86
2021/04/04 05:09:05;;;;;;;26.70;17.95;;;;;;;1.67;75.72;99434.34;114005;1199;64382;-85
2021/04/04 05:11:33;;;;;;;24.43;18.28;;;;;;;1.86;75.43;99435.61;113920;1199;64359;-84
2021/04/04 05:14:01;;;;;;;24.80;16.70;;;;;;;2.14;75.06;99435.80;113792;1199;64786;-83
2021/04/04 05:16:30;;;;;;;24.70;18.10;;;;;;;2.66;74.32;99427.41;113800;1199;64384;-84
2021/04/04 05:18:57;;;;;;;21.93;17.93;;;;;;;3.29;73.47;99427.33;113950;1199;64337;-85
2021/04/04 05:21:27;;;;;;;24.80;17.47;;;;;;;3.83;72.69;99425.63;113902;1198;64503;-86
2021/04/04 05:24:01;;;;;;;24.60;17.70;;;;;;;4.24;71.68;99430.42;113894;1199;64378;-84
2021/04/04 05:26:45;;;;;;;27.87;17.40;;;;;;;4.62;71.30;99432.59;113859;1200;64771;-85
2021/04/04 05:29:14;;;;;;;19.10;14.00;;;;;;;4.86;69.92;99424.70;113819;1199;64298;-84
2021/04/04 05:31:59;;;;;;;17.33;12.37;;;;;;;4.88;68.57;99432.59;113885;1199;64345;-84
2021/04/04 05:34:28;;;;;;;16.87;10.63;;;;;;;4.82;68.51;99429.25;113826;1199;64308;-85
2021/04/04 05:37:01;;;;;;;14.80;11.60;;;;;;;4.72;68.58;99430.50;113879;1199;64443;-85
2021/04/04 05:39:34;;;;;;;16.63;11.57;;;;;;;4.77;68.00;99433.83;113877;1199;64515;-85
2021/04/04 05:42:09;;;;;;;16.77;11.50;;;;;;;4.84;67.59;99435.34;113842;1199;64391;-84
2021/04/04 05:44:53;;;;;;;18.25;11.55;;;;;;;4.84;67.91;99430.06;113857;1199;64414;-84
2021/04/04 05:47:44;;;;;;;15.17;9.60;;;;;;;4.93;66.61;99436.77;113821;1200;64368;-84
2021/04/04 05:50:36;;;;;;;14.10;9.87;;;;;;;5.01;66.39;99439.14;113888;1199;64311;-85
2021/04/04 05:53:33;;;;;;;11.75;8.30;;;;;;;4.91;66.35;99438.61;114009;1199;64471;-86
2021/04/04 05:56:15;;;;;;;14.30;10.20;;;;;;;5.17;65.99;99445.56;114086;1199;64413;-86
2021/04/04 05:58:51;;;;;;;15.47;9.93;;;;;;;5.34;65.98;99447.55;114173;1199;64342;-87
2021/04/04 06:01:24;;;;;;;15.30;10.03;;;;;;;5.10;65.79;99446.70;114127;1200;64359;-86
2021/04/04 06:04:16;;;;;;;13.80;10.35;;;;;;;4.69;65.82;99445.59;114441;1199;64387;-86
2021/04/04 06:07:17;;;;;;;16.35;11.20;;;;;;;4.33;66.66;99452.09;114609;1199;64535;-87
2021/04/04 06:10:03;;;;;;;16.35;11.60;;;;;;;4.36;67.13;99454.61;114551;1198;64398;-86
2021/04/04 06:12:52;;;;;;;18.57;11.33;;;;;;;4.57;66.46;99452.16;114591;1200;64326;-86
2021/04/04 06:15:33;;;;;;;14.58;10.30;;;;;;;4.43;66.79;99455.28;114381;1199;64263;-85
2021/04/04 06:18:27;;;;;;;17.40;12.07;;;;;;;4.34;66.78;99448.52;114380;1198;64346;-87
2021/04/04 06:21:13;;;;;;;13.57;11.37;;;;;;;4.27;66.82;99454.09;114432;1199;64416;-86
2021/04/04 06:24:18;;;;;;;15.70;11.37;;;;;;;4.45;66.62;99453.45;114250;1199;64818;-86
2021/04/04 06:27:01;;;;;;;16.80;11.90;;;;;;;4.80;66.92;99456.63;114321;1200;64390;-86
2021/04/04 06:30:04;;;;;;;20.33;15.37;;;;;;;5.08;66.55;99451.17;114168;1199;64407;-86
2021/04/04 06:32:41;;;;;;;19.20;13.27;;;;;;;5.19;65.31;99446.38;114102;1199;64387;-87
2021/04/04 06:35:31;;;;;;;18.45;12.15;;;;;;;4.90;66.19;99438.64;114055;1199;64528;-86
2021/04/04 06:38:16;;;;;;;16.80;12.03;;;;;;;4.92;66.53;99444.73;113995;1200;64448;-87
2021/04/04 06:41:04;;;;;;;18.40;13.90;;;;;;;4.89;66.01;99447.50;113954;1200;64315;-88
2021/04/04 06:43:53;;;;;;;17.53;12.27;;;;;;;4.72;65.72;99438.41;113903;1199;64382;-86
2021/04/04 06:46:42;;;;;;;17.40;13.90;;;;;;;4.46;66.37;99444.61;113899;1199;64461;-87
2021/04/04 06:49:15;;;;;;;22.35;12.85;;;;;;;4.46;66.60;99449.89;113832;1199;64353;-86
2021/04/04 06:52:02;;;;;;;17.90;11.83;;;;;;;4.56;66.95;99445.16;113840;1199;64369;-85
2021/04/04 06:54:41;;;;;;;17.40;13.00;;;;;;;4.59;65.83;99452.97;113795;1199;64381;-86
2021/04/04 06:57:25;;;;;;;18.43;12.77;;;;;;;4.52;66.32;99448.81;113878;1199;64384;-85
2021/04/04 07:00:04;;;;;;;16.03;11.33;;;;;;;4.49;66.17;99456.84;113830;1199;64307;-85
2021/04/04 07:02:40;;;;;;;13.95;10.55;;;;;;;4.39;65.97;99456.28;113884;1200;64526;-85
2021/04/04 07:05:13;;;;;;;14.63;9.60;;;;;;;4.38;65.93;99454.58;113787;1199;64362;-85
2021/04/04 07:07:55;;;;;;;16.03;10.77;;;;;;;4.50;66.70;99463.83;113839;1199;64426;-85
2021/04/04 07:10:43;;;;;;;13.80;9.90;;;;;;;4.68;66.29;99457.91;113816;1199;64342;-86
2021/04/04 07:13:19;;;;;;;16.20;11.70;;;;;;;4.88;65.98;99458.99;113767;1200;64426;-86
2021/04/04 07:16:23;;;;;;;15.87;11.37;;;;;;;5.01;65.88;99458.48;113838;1199;64404;-86
2021/04/04 07:19:15;;;;;;;17.00;12.25;;;;;;;5.26;65.74;99463.70;113836;1199;64388;-86
2021/04/04 07:22:11;;;;;;;15.70;11.60;;;;;;;5.31;65.58;99462.67;113848;1200;64310;-87
2021/04/04 07:25:03;;;;;;;15.90;11.50;;;;;;;5.16;65.50;99467.63;113940;1199;64384;-87
2021/04/04 07:27:48;;;;;;;16.00;11.77;;;;;;;4.93;65.22;99470.25;114039;1199;64500;-89
2021/04/04 07:30:36;;;;;;;17.63;12.23;;;;;;;4.98;65.86;99473.59;114765;1199;64414;-90
2021/04/04 07:33:06;;;;;;;19.20;12.23;;;;;;;5.04;65.08;99474.21;114123;1199;64366;-90
2021/04/04 07:36:04;;;;;;;18.17;13.07;;;;;;;5.16;65.29;99475.56;114595;1199;64308;-90
2021/04/04 07:38:45;;;;;;;19.40;11.03;;;;;;;5.49;64.99;99470.75;114376;1199;64384;-89
2021/04/04 07:41:28;;;;;;;15.87;10.17;;;;;;;5.77;64.64;99464.41;113804;1199;64551;-84
2021/04/04 07:44:02;;;;;;;14.00;10.37;;;;;;;6.19;64.71;99470.67;113772;1199;64949;-84
2021/04/04 07:46:38;;;;;;;14.00;8.77;;;;;;;6.22;62.65;99478.51;113756;1199;64378;-84
2021/04/04 07:49:53;;;;;;;14.55;8.60;;;;;;;6.05;62.24;99471.24;113770;1199;64340;-84
2021/04/04 07:52:33;;;;;;;11.55;7.45;;;;;;;6.07;62.60;99474.70;113739;1200;64420;-84
2021/04/04 07:55:12;;;;;;;11.70;8.40;;;;;;;6.25;62.46;99473.08;113810;1199;64438;-85
2021/04/04 07:58:18;;;;;;;9.80;6.07;;;;;;;6.36;61.62;99478.78;113801;1199;65910;-84
2021/04/04 08:01:50;;;;;;;10.23;6.90;;;;;;;6.31;61.10;99470.17;113710;1199;64350;-84
2021/04/04 08:04:28;;;;;;;10.47;7.60;;;;;;;6.28;61.64;99468.52;113531;1203;64388;-85
2021/04/04 08:07:09;;;;;;;11.57;7.80;;;;;;;6.04;60.78;99473.03;113700;1203;64679;-86
2021/04/04 08:09:47;;;;;;;11.55;8.30;;;;;;;5.71;61.50;99475.20;113688;1199;64484;-84
2021/04/04 08:12:23;;;;;;;10.90;7.25;;;;;;;5.60;61.46;99478.27;113879;1200;64465;-85
2021/04/04 08:15:07;;;;;;;9.80;7.20;;;;;;;5.45;61.39;99481.50;113820;1199;64391;-85
2021/04/04 08:17:35;;;;;;;11.57;7.40;;;;;;;5.35;61.24;99480.16;113825;1200;64442;-84
2021/04/04 08:20:08;;;;;;;15.70;11.13;;;;;;;5.32;61.66;99481.13;113847;1199;64385;-85
2021/04/04 08:22:40;;;;;;;24.83;16.77;;;;;;;5.39;61.71;99477.31;113820;1200;64473;-84
2021/04/04 08:25:55;;;;;;;17.13;10.43;;;;;;;5.51;61.59;99473.35;113812;1199;64385;-86
2021/04/04 08:28:34;;;;;;;9.13;5.87;;;;;;;5.56;60.43;99479.33;113740;1199;64486;-85
2021/04/04 08:31:27;;;;;;;8.37;5.30;;;;;;;5.62;60.49;99471.14;113908;1199;64905;-86
2021/04/04 08:34:01;;;;;;;7.70;4.30;;;;;;;5.98;59.14;99468.00;114002;1199;64423;-88
2021/04/04 08:36:31;;;;;;;5.47;3.60;;;;;;;6.14;57.29;99473.53;114167;1200;64537;-89
2021/04/04 08:39:00;;;;;;;9.07;5.17;;;;;;;6.09;58.77;99473.71;114196;1199;64393;-88
2021/04/04 08:41:32;;;;;;;8.40;4.40;;;;;;;6.21;58.17;99468.83;114105;1199;64418;-88
2021/04/04 08:44:04;;;;;;;10.33;5.03;;;;;;;6.15;58.26;99476.09;113903;1199;64426;-86
2021/04/04 08:46:52;;;;;;;7.27;3.53;;;;;;;6.30;57.97;99465.81;114031;1199;64314;-89
2021/04/04 08:49:20;;;;;;;5.30;3.20;;;;;;;6.68;57.79;99460.66;114152;1200;64659;-82
2021/04/04 08:52:00;;;;;;;5.13;3.57;;;;;;;7.10;55.95;99454.38;114147;1198;64413;-88
2021/04/04 08:54:29;;;;;;;7.47;4.20;;;;;;;7.48;57.09;99444.67;114138;1199;64768;-86
2021/04/04 08:57:00;;;;;;;5.03;3.80;;;;;;;7.67;54.90;99455.27;114380;1199;64324;-84
2021/04/04 08:59:32;;;;;;;5.53;3.57;;;;;;;7.69;53.94;99450.75;114520;1199;64464;-88
2021/04/04 09:02:02;;;;;;;5.80;2.85;;;;;;;7.62;53.80;99451.97;114243;1200;64422;-84
2021/04/04 09:04:30;;;;;;;7.30;4.20;;;;;;;7.63;53.53;99445.72;114213;1199;64493;-87
2021/04/04 09:07:07;;;;;;;6.07;3.47;;;;;;;7.45;52.81;99445.67;114233;1199;64821;-86
2021/04/04 09:09:39;;;;;;;5.10;3.80;;;;;;;7.28;52.96;99450.89;114127;1199;64275;-85
2021/04/04 09:12:08;;;;;;;5.00;2.90;;;;;;;7.14;53.65;99451.53;114294;1199;64296;-86
2021/04/04 09:14:38;;;;;;;5.90;3.40;;;;;;;7.03;53.61;99448.52;114476;1199;64445;-88
2021/04/04 09:17:12;;;;;;;5.35;3.68;;;;;;;6.86;53.49;99445.75;114281;1199;64403;-87
2021/04/04 09:19:42;;;;;;;6.23;3.60;;;;;;;6.68;52.29;99453.56;114510;1199;64397;-87
2021/04/04 09:22:19;;;;;;;5.73;3.65;;;;;;;6.44;53.68;99450.20;114730;1199;64379;-88
2021/04/04 09:25:00;;;;;;;6.03;3.90;;;;;;;6.21;53.43;99448.51;114516;1199;64471;-86
2021/04/04 09:27:35;;;;;;;7.65;4.00;;;;;;;6.19;54.17;99452.14;114583;1199;64317;-88
2021/04/04 09:30:04;;;;;;;7.35;3.55;;;;;;;6.26;54.42;99448.33;114539;1200;64554;-87
2021/04/04 09:32:46;;;;;;;6.10;4.07;;;;;;;6.33;54.40;99445.36;114589;1199;64132;-87
2021/04/04 09:35:18;;;;;;;5.90;3.80;;;;;;;6.45;54.36;99443.10;114462;1200;64442;-87
2021/04/04 09:37:46;;;;;;;5.33;3.77;;;;;;;6.59;54.21;99443.39;114527;1199;64314;-88
2021/04/04 09:40:16;;;;;;;7.70;3.97;;;;;;;6.74;54.38;99450.67;114464;1199;64356;-87
2021/04/04 09:42:43;;;;;;;6.30;4.10;;;;;;;6.79;54.11;99446.03;114473;1199;64401;-87
2021/04/04 09:45:20;;;;;;;7.20;4.23;;;;;;;6.87;53.15;99450.11;114355;1199;64374;-88
2021/04/04 09:47:50;;;;;;;3.90;2.10;;;;;;;6.83;52.29;99451.19;114316;1200;64483;-88
2021/04/04 09:50:24;;;;;;;5.18;2.85;;;;;;;6.86;52.54;99443.09;114324;1199;64406;-86
2021/04/04 09:52:53;;;;;;;5.37;3.43;;;;;;;6.99;52.10;99436.31;114190;1200;64641;-86
2021/04/04 09:55:22;;;;;;;6.23;3.73;;;;;;;7.03;52.43;99440.56;113922;1199;64343;-87
2021/04/04 09:57:51;;;;;;;5.63;3.70;;;;;;;7.21;52.61;99436.19;114014;1199;64385;-86
2021/04/04 10:00:19;;;;;;;6.33;4.60;;;;;;;7.50;52.08;99433.97;113875;1199;64343;-85
2021/04/04 10:02:50;;;;;;;22.87;20.93;;;;;;;7.87;52.07;99423.33;113856;1199;64400;-86
2021/04/04 10:05:32;;;;;;;16.23;14.73;;;;;;;8.32;51.60;99423.73;113826;1199;64484;-87
2021/04/04 10:08:18;;;;;;;5.40;2.90;;;;;;;8.59;51.41;99425.98;113902;1199;64481;-87
2021/04/04 10:10:56;;;;;;;3.65;2.45;;;;;;;8.76;48.65;99423.28;113881;1199;64356;-86
2021/04/04 10:13:27;;;;;;;3.80;2.57;;;;;;;8.74;49.06;99420.72;113901;1200;64397;-86
2021/04/04 10:15:55;;;;;;;4.53;2.60;;;;;;;8.93;49.21;99414.43;113950;1199;64396;-87
2021/04/04 10:18:23;;;;;;;5.30;2.70;;;;;;;9.14;48.26;99399.97;113808;1200;64461;-86
2021/04/04 10:20:56;;;;;;;4.20;2.25;;;;;;;9.15;48.11;99407.00;113890;1199;64647;-86
2021/04/04 10:23:31;;;;;;;2.10;1.75;;;;;;;9.51;48.96;99405.92;113864;1199;64384;-86
2021/04/04 10:26:04;;;;;;;2.70;2.10;;;;;;;9.78;49.04;99410.63;113867;1200;64231;-87
2021/04/04 10:28:44;;;;;;;5.67;3.10;;;;;;;9.53;48.29;99406.70;113868;1199;64454;-87
2021/04/04 10:31:11;;;;;;;5.80;3.07;;;;;;;9.11;48.24;99410.78;113930;1200;64375;-87
2021/04/04 10:33:38;;;;;;;4.70;2.93;;;;;;;8.80;47.91;99411.56;113874;1199;65117;-87
2021/04/04 10:36:17;;;;;;;4.45;2.95;;;;;;;8.46;47.90;99401.84;113815;1199;64400;-87
2021/04/04 10:38:44;;;;;;;5.97;3.60;;;;;;;8.08;48.20;99407.25;113835;1199;64403;-87
2021/04/04 10:41:23;;;;;;;5.50;2.80;;;;;;;7.88;48.03;99405.61;113847;1199;64449;-86
2021/04/04 10:43:50;;;;;;;10.50;5.47;;;;;;;7.73;48.68;99401.05;113843;1199;64320;-86
2021/04/04 10:46:17;;;;;;;9.40;4.63;;;;;;;7.65;48.08;99404.07;113892;1199;64825;-86
2021/04/04 10:48:46;;;;;;;8.63;5.27;;;;;;;7.59;48.60;99407.88;113861;1199;64417;-87
2021/04/04 10:51:16;;;;;;;5.05;3.60;;;;;;;7.60;48.78;99401.63;113969;1199;64524;-87
2021/04/04 10:53:43;;;;;;;6.40;3.97;;;;;;;7.72;48.33;99392.23;113871;1199;64417;-87
2021/04/04 10:56:12;;;;;;;5.47;3.20;;;;;;;7.88;48.53;99392.34;113968;1199;64512;-87
2021/04/04 10:58:40;;;;;;;3.57;2.80;;;;;;;8.05;48.35;99383.52;113891;1199;64483;-87
2021/04/04 11:01:11;;;;;;;4.33;3.20;;;;;;;8.26;47.68;99387.73;113875;1199;64416;-87
2021/04/04 11:03:42;;;;;;;4.05;2.90;;;;;;;8.41;45.52;99386.13;113906;1199;64378;-86
2021/04/04 11:06:11;;;;;;;3.80;2.73;;;;;;;8.36;46.39;99377.52;113987;1199;64445;-86
2021/04/04 11:08:42;;;;;;;5.53;3.03;;;;;;;8.49;46.82;99369.80;114233;1200;64426;-86
2021/04/04 11:11:11;;;;;;;3.75;2.65;;;;;;;8.56;46.51;99368.55;113881;1199;64525;-86
2021/04/04 11:13:41;;;;;;;7.90;3.85;;;;;;;8.75;46.61;99369.28;114004;1200;64442;-85
2021/04/04 11:16:10;;;;;;;6.87;4.00;;;;;;;8.94;46.62;99366.48;114058;1199;64490;-86
2021/04/04 11:18:54;;;;;;;9.20;5.55;;;;;;;9.19;46.30;99360.70;113919;1200;64490;-87
2021/04/04 11:21:31;;;;;;;7.87;4.40;;;;;;;9.41;45.69;99354.17;113944;1200;64494;-86
2021/04/04 11:23:58;;;;;;;7.05;2.50;;;;;;;9.57;44.70;99357.67;113896;1199;64720;-86
2021/04/04 11:26:32;;;;;;;4.17;2.97;;;;;;;9.73;44.84;99351.47;113901;1200;64336;-86
2021/04/04 11:29:13;;;;;;;5.65;3.25;;;;;;;9.84;44.69;99355.21;114074;1199;64445;-86
2021/04/04 11:31:42;;;;;;;5.93;3.67;;;;;;;9.65;42.69;99358.09;113926;1200;64420;-85
2021/04/04 11:34:38;;;;;;;3.65;2.45;;;;;;;9.59;44.32;99353.13;113994;1199;64314;-86
2021/04/04 11:37:26;;;;;;;5.27;3.20;;;;;;;9.53;43.03;99350.83;114373;1200;64477;-91
2021/04/04 11:40:17;;;;;;;5.23;3.60;;;;;;;9.30;43.56;99353.92;113930;1199;64352;-91
2021/04/04 11:43:08;;;;;;;5.83;3.80;;;;;;;9.22;43.90;99352.54;114038;1199;64378;-91
2021/04/04 11:45:37;;;;;;;5.30;2.90;;;;;;;8.96;43.29;99353.13;114047;1199;64382;-89
2021/04/04 11:48:33;;;;;;;5.10;2.83;;;;;;;8.80;44.50;99350.44;113928;1199;64487;-89
2021/04/04 11:51:30;;;;;;;4.55;2.90;;;;;;;8.84;45.11;99344.00;113905;1199;64362;-90
2021/04/04 11:53:57;;;;;;;4.97;3.53;;;;;;;9.16;45.04;99344.03;114035;1199;64423;-90
2021/04/04 11:56:45;;;;;;;3.53;2.70;;;;;;;9.42;42.05;99337.25;113971;1198;64359;-88